Reno, NV (89501)

11:15 PM PDT on September 30, 2014 (GMT -0700)
MidTown | Change Station
CLOSE
Current Station
Personal Weather Station
Location: Reno, NV
Elevation: 4491 ft
Nearby Weather Stations

Elev 4491 ft 39.52 °N, 119.81 °W | Updated 10 minutes ago

Partly Cloudy
Partly Cloudy
55.9 °F
Feels Like 55.9 °F
N
-
Wind Variable Wind from North

Today
High -- | Low -- °F
--% Chance of Precip.
Yesterday
High -- | Low -- °F
Precip. -- in
6:54 AM 6:43 PM
Waxing Crescent, 44% visible
Pressure 29.97 in
Visibility 10.0 miles
Clouds Few 8000 ft
Dew Point 34 °F
Humidity 44%
Rainfall 0.00 in
Snow Depth 1 in , 1 in , 0 in
UV 0 out of 12
Pollen 5.60 out of 12
Air Quality Not available.
Flu Activity Not available.
METAR KRNO 010555Z 35007KT 10SM FEW080 13/02 A3007 RMK AO2 SLP148 T01330017 10211 20133 51020 $

More Conditions Fewer Conditions

Pressure 29.97 in
Visibility 10.0 miles
Clouds Few 8000 ft
Dew Point 34 °F
Humidity 44%
Rainfall 0.00 in
Snow Depth 1 in , 1 in , 0 in
UV 0 out of 12
Pollen 5.60 out of 12
Air Quality Not available.
Flu Activity Not available.
METAR KRNO 010555Z 35007KT 10SM FEW080 13/02 A3007 RMK AO2 SLP148 T01330017 10211 20133 51020 $

More Conditions Fewer Conditions

10-Day Weather Forecast

Almanac

Astronomy

Sep. 30, 2014 Rise Set
Actual Time 6:54 AM PDT 6:43 PM PDT
Civil Twilight 6:27 AM PDT 7:09 PM PDT
Nautical Twilight 5:56 AM PDT 7:41 PM PDT
Astronomical Twilight 5:24 AM PDT 8:12 PM PDT
Moon 1:06 PM PDT (9/30) 11:19 PM PDT (9/30)
Length of Visible Light 12h 42m
Length of Day
11h 48m
Tomorrow will be 2m 34s shorter.
Waxing Crescent, 44% of the Moon is Illuminated
Oct 1
Waxing Crescent
Oct 1
First Quarter
Oct 8
Full
Oct 15
Last Quarter
Oct 23
New

Community

WunderPhotos

Upload Photos

1,757,877 photos uploaded!

Nearby

Snow Depth

Station Depth Elevation
Green Mountain 1 in 8000 ft
Disaster Peak 1 in 6500 ft
Lewis Peak 0 in 7400 ft
Dorsey Basin 1 in 8100 ft
Mt. Rose Ski Area 1 in 8850 ft

Earthquake Activity

City Distance Mag. Time & Date
No recent earthquake activity has been reported nearby.
Minimum magnitude displayed is 2.5.

Coastal Water Temperatures

Place Temperature
No Stations Reporting

Nearby Weather Stations